sensor_id;sensor_type;location;lat;lon;timestamp;pressure;altitude;pressure_sealevel;temperature;humidity
82953;BME280;74888;40.196;44.560;2023-12-20T00:01:51;88190.16;;;0.29;47.49
82953;BME280;74888;40.196;44.560;2023-12-20T00:04:17;88189.28;;;0.36;47.67
82953;BME280;74888;40.196;44.560;2023-12-20T00:06:42;88187.72;;;0.42;47.49
82953;BME280;74888;40.196;44.560;2023-12-20T00:09:08;88187.31;;;0.43;47.70
82953;BME280;74888;40.196;44.560;2023-12-20T00:11:35;88187.97;;;0.63;47.46
82953;BME280;74888;40.196;44.560;2023-12-20T00:14:00;88182.44;;;0.81;47.10
82953;BME280;74888;40.196;44.560;2023-12-20T00:16:27;88192.44;;;0.79;46.99
82953;BME280;74888;40.196;44.560;2023-12-20T00:18:53;88186.34;;;0.69;47.32
82953;BME280;74888;40.196;44.560;2023-12-20T00:21:18;88183.78;;;0.69;47.71
82953;BME280;74888;40.196;44.560;2023-12-20T00:23:45;88171.78;;;0.79;47.24
82953;BME280;74888;40.196;44.560;2023-12-20T00:26:12;88172.25;;;0.90;47.34
82953;BME280;74888;40.196;44.560;2023-12-20T00:28:38;88177.19;;;1.00;46.97
82953;BME280;74888;40.196;44.560;2023-12-20T00:31:04;88171.94;;;1.04;46.71
82953;BME280;74888;40.196;44.560;2023-12-20T00:33:30;88172.19;;;1.09;46.82
82953;BME280;74888;40.196;44.560;2023-12-20T00:35:58;88170.38;;;1.06;46.58
82953;BME280;74888;40.196;44.560;2023-12-20T00:38:25;88168.28;;;1.01;47.36
82953;BME280;74888;40.196;44.560;2023-12-20T00:40:52;88163.38;;;0.91;47.17
82953;BME280;74888;40.196;44.560;2023-12-20T00:43:18;88160.06;;;0.90;47.46
82953;BME280;74888;40.196;44.560;2023-12-20T00:45:43;88152.22;;;0.94;47.54
82953;BME280;74888;40.196;44.560;2023-12-20T00:48:10;88149.31;;;0.92;47.16
82953;BME280;74888;40.196;44.560;2023-12-20T00:50:40;88151.59;;;0.74;47.66
82953;BME280;74888;40.196;44.560;2023-12-20T00:53:06;88150.44;;;0.75;47.16
82953;BME280;74888;40.196;44.560;2023-12-20T00:55:33;88145.50;;;0.64;47.01
82953;BME280;74888;40.196;44.560;2023-12-20T00:58:02;88142.38;;;0.57;47.82
82953;BME280;74888;40.196;44.560;2023-12-20T01:00:28;88140.59;;;0.54;47.27
82953;BME280;74888;40.196;44.560;2023-12-20T01:02:55;88145.59;;;0.45;47.41
82953;BME280;74888;40.196;44.560;2023-12-20T01:05:21;88150.09;;;0.41;47.45
82953;BME280;74888;40.196;44.560;2023-12-20T01:07:48;88142.41;;;0.37;47.45
82953;BME280;74888;40.196;44.560;2023-12-20T01:10:14;88147.50;;;0.41;47.97
82953;BME280;74888;40.196;44.560;2023-12-20T01:12:40;88138.31;;;0.40;47.41
82953;BME280;74888;40.196;44.560;2023-12-20T01:15:05;88138.38;;;0.20;48.01
82953;BME280;74888;40.196;44.560;2023-12-20T01:17:31;88143.94;;;0.19;47.97
82953;BME280;74888;40.196;44.560;2023-12-20T01:19:58;88138.69;;;0.22;48.16
82953;BME280;74888;40.196;44.560;2023-12-20T01:22:23;88139.44;;;0.23;48.16
82953;BME280;74888;40.196;44.560;2023-12-20T01:24:49;88136.44;;;0.24;47.96
82953;BME280;74888;40.196;44.560;2023-12-20T01:27:14;88141.19;;;0.26;48.61
82953;BME280;74888;40.196;44.560;2023-12-20T01:29:40;88141.13;;;0.29;47.66
82953;BME280;74888;40.196;44.560;2023-12-20T01:32:13;88141.47;;;0.31;47.96
82953;BME280;74888;40.196;44.560;2023-12-20T01:34:39;88140.97;;;0.36;47.53
82953;BME280;74888;40.196;44.560;2023-12-20T01:37:06;88147.03;;;0.46;47.29
82953;BME280;74888;40.196;44.560;2023-12-20T01:39:33;88150.28;;;0.50;47.29
82953;BME280;74888;40.196;44.560;2023-12-20T01:42:00;88147.94;;;0.55;47.15
82953;BME280;74888;40.196;44.560;2023-12-20T01:44:27;88149.06;;;0.54;46.65
82953;BME280;74888;40.196;44.560;2023-12-20T01:46:52;88149.38;;;0.56;46.63
82953;BME280;74888;40.196;44.560;2023-12-20T01:49:18;88155.22;;;0.60;46.88
82953;BME280;74888;40.196;44.560;2023-12-20T01:51:46;88155.91;;;0.61;47.49
82953;BME280;74888;40.196;44.560;2023-12-20T01:54:12;88156.34;;;0.75;46.94
82953;BME280;74888;40.196;44.560;2023-12-20T01:56:38;88159.06;;;0.84;46.63
82953;BME280;74888;40.196;44.560;2023-12-20T01:59:05;88155.72;;;0.87;46.81
82953;BME280;74888;40.196;44.560;2023-12-20T02:01:33;88154.56;;;0.88;46.11
82953;BME280;74888;40.196;44.560;2023-12-20T02:04:02;88166.94;;;0.81;46.67
82953;BME280;74888;40.196;44.560;2023-12-20T02:06:33;88168.19;;;0.73;46.42
82953;BME280;74888;40.196;44.560;2023-12-20T02:09:00;88172.75;;;0.69;46.26
82953;BME280;74888;40.196;44.560;2023-12-20T02:11:27;88168.75;;;0.64;46.46
82953;BME280;74888;40.196;44.560;2023-12-20T02:13:54;88172.16;;;0.61;46.54
82953;BME280;74888;40.196;44.560;2023-12-20T02:16:20;88170.13;;;0.53;46.42
82953;BME280;74888;40.196;44.560;2023-12-20T02:18:47;88170.28;;;0.46;46.83
82953;BME280;74888;40.196;44.560;2023-12-20T02:21:15;88164.81;;;0.44;46.79
82953;BME280;74888;40.196;44.560;2023-12-20T02:23:40;88169.97;;;0.44;47.35
82953;BME280;74888;40.196;44.560;2023-12-20T02:26:07;88178.00;;;0.46;47.63
82953;BME280;74888;40.196;44.560;2023-12-20T02:28:33;88173.91;;;0.48;47.66
82953;BME280;74888;40.196;44.560;2023-12-20T02:31:01;88171.28;;;0.32;47.21
82953;BME280;74888;40.196;44.560;2023-12-20T02:33:26;88174.13;;;0.22;47.61
82953;BME280;74888;40.196;44.560;2023-12-20T02:35:53;88174.72;;;0.10;47.71
82953;BME280;74888;40.196;44.560;2023-12-20T02:38:20;88170.63;;;-0.08;47.36
82953;BME280;74888;40.196;44.560;2023-12-20T02:40:45;88177.00;;;-0.12;47.96
82953;BME280;74888;40.196;44.560;2023-12-20T02:43:12;88180.13;;;-0.21;48.07
82953;BME280;74888;40.196;44.560;2023-12-20T02:45:38;88178.53;;;-0.34;48.30
82953;BME280;74888;40.196;44.560;2023-12-20T02:48:04;88179.31;;;-0.37;48.41
82953;BME280;74888;40.196;44.560;2023-12-20T02:50:30;88192.84;;;-0.33;48.52
82953;BME280;74888;40.196;44.560;2023-12-20T02:52:58;88183.63;;;-0.31;48.96
82953;BME280;74888;40.196;44.560;2023-12-20T02:55:24;88183.22;;;-0.29;48.53
82953;BME280;74888;40.196;44.560;2023-12-20T02:57:50;88186.72;;;-0.20;48.06
82953;BME280;74888;40.196;44.560;2023-12-20T03:00:16;88192.94;;;-0.17;48.01
82953;BME280;74888;40.196;44.560;2023-12-20T03:02:42;88205.91;;;-0.21;48.17
82953;BME280;74888;40.196;44.560;2023-12-20T03:05:08;88195.72;;;-0.28;47.68
82953;BME280;74888;40.196;44.560;2023-12-20T03:07:36;88195.84;;;-0.35;48.22
82953;BME280;74888;40.196;44.560;2023-12-20T03:10:05;88192.13;;;-0.34;48.31
82953;BME280;74888;40.196;44.560;2023-12-20T03:12:32;88200.53;;;-0.30;48.07
82953;BME280;74888;40.196;44.560;2023-12-20T03:14:58;88202.72;;;-0.28;48.18
82953;BME280;74888;40.196;44.560;2023-12-20T03:17:24;88204.09;;;-0.24;48.41
82953;BME280;74888;40.196;44.560;2023-12-20T03:19:51;88192.22;;;-0.18;48.29
82953;BME280;74888;40.196;44.560;2023-12-20T03:22:26;88192.78;;;-0.10;48.06
82953;BME280;74888;40.196;44.560;2023-12-20T03:24:51;88194.31;;;-0.13;48.13
82953;BME280;74888;40.196;44.560;2023-12-20T03:27:18;88202.13;;;-0.16;47.85
82953;BME280;74888;40.196;44.560;2023-12-20T03:29:44;88195.59;;;-0.21;48.15
82953;BME280;74888;40.196;44.560;2023-12-20T03:32:09;88195.59;;;-0.21;47.87
82953;BME280;74888;40.196;44.560;2023-12-20T03:34:35;88204.91;;;-0.27;48.10
82953;BME280;74888;40.196;44.560;2023-12-20T03:37:02;88199.22;;;-0.38;48.43
82953;BME280;74888;40.196;44.560;2023-12-20T03:39:27;88197.75;;;-0.39;48.19
82953;BME280;74888;40.196;44.560;2023-12-20T03:41:54;88203.28;;;-0.40;48.44
82953;BME280;74888;40.196;44.560;2023-12-20T03:44:22;88204.44;;;-0.41;48.46
82953;BME280;74888;40.196;44.560;2023-12-20T03:46:47;88201.41;;;-0.36;48.25
82953;BME280;74888;40.196;44.560;2023-12-20T03:49:15;88203.09;;;-0.30;47.96
82953;BME280;74888;40.196;44.560;2023-12-20T03:51:41;88210.09;;;-0.30;47.95
82953;BME280;74888;40.196;44.560;2023-12-20T03:54:08;88204.31;;;-0.34;48.37
82953;BME280;74888;40.196;44.560;2023-12-20T03:56:33;88205.00;;;-0.34;48.59
82953;BME280;74888;40.196;44.560;2023-12-20T03:59:05;88210.03;;;-0.46;48.73
82953;BME280;74888;40.196;44.560;2023-12-20T04:01:30;88207.75;;;-0.41;49.10
82953;BME280;74888;40.196;44.560;2023-12-20T04:03:57;88212.75;;;-0.34;48.41
82953;BME280;74888;40.196;44.560;2023-12-20T04:06:23;88212.38;;;-0.32;48.10
82953;BME280;74888;40.196;44.560;2023-12-20T04:08:48;88213.38;;;-0.26;48.26
82953;BME280;74888;40.196;44.560;2023-12-20T04:11:14;88211.84;;;-0.24;48.36
82953;BME280;74888;40.196;44.560;2023-12-20T04:13:42;88220.91;;;-0.16;48.62
82953;BME280;74888;40.196;44.560;2023-12-20T04:16:08;88208.94;;;-0.06;48.24
82953;BME280;74888;40.196;44.560;2023-12-20T04:18:34;88210.00;;;-0.04;48.14
82953;BME280;74888;40.196;44.560;2023-12-20T04:21:00;88214.09;;;-0.06;47.72
82953;BME280;74888;40.196;44.560;2023-12-20T04:23:25;88220.91;;;-0.16;48.16
82953;BME280;74888;40.196;44.560;2023-12-20T04:25:54;88219.66;;;-0.27;48.94
82953;BME280;74888;40.196;44.560;2023-12-20T04:28:20;88219.91;;;-0.22;48.57
82953;BME280;74888;40.196;44.560;2023-12-20T04:30:49;88227.59;;;-0.18;48.63
82953;BME280;74888;40.196;44.560;2023-12-20T04:33:14;88234.06;;;-0.10;48.60
82953;BME280;74888;40.196;44.560;2023-12-20T04:35:40;88226.94;;;-0.03;48.35
82953;BME280;74888;40.196;44.560;2023-12-20T04:38:17;88231.69;;;-0.01;48.75
82953;BME280;74888;40.196;44.560;2023-12-20T04:40:43;88235.94;;;-0.11;48.21
82953;BME280;74888;40.196;44.560;2023-12-20T04:43:09;88231.56;;;-0.14;48.50
82953;BME280;74888;40.196;44.560;2023-12-20T04:45:37;88228.59;;;-0.12;48.45
82953;BME280;74888;40.196;44.560;2023-12-20T04:48:08;88229.75;;;-0.17;48.45
82953;BME280;74888;40.196;44.560;2023-12-20T04:50:35;88240.47;;;-0.18;48.76
82953;BME280;74888;40.196;44.560;2023-12-20T04:53:01;88237.97;;;-0.22;48.67
82953;BME280;74888;40.196;44.560;2023-12-20T04:55:27;88242.34;;;-0.19;48.84
82953;BME280;74888;40.196;44.560;2023-12-20T04:57:52;88248.50;;;-0.13;48.70
82953;BME280;74888;40.196;44.560;2023-12-20T05:00:18;88247.34;;;-0.12;48.71
82953;BME280;74888;40.196;44.560;2023-12-20T05:02:46;88248.88;;;-0.14;48.58
82953;BME280;74888;40.196;44.560;2023-12-20T05:05:15;88253.38;;;-0.18;48.71
82953;BME280;74888;40.196;44.560;2023-12-20T05:07:43;88256.97;;;-0.12;48.80
82953;BME280;74888;40.196;44.560;2023-12-20T05:10:09;88249.47;;;-0.07;48.74
82953;BME280;74888;40.196;44.560;2023-12-20T05:12:34;88257.81;;;0.01;48.87
82953;BME280;74888;40.196;44.560;2023-12-20T05:15:06;88255.13;;;0.08;48.89
82953;BME280;74888;40.196;44.560;2023-12-20T05:17:32;88257.63;;;0.12;48.82
82953;BME280;74888;40.196;44.560;2023-12-20T05:19:58;88254.13;;;0.22;48.63
82953;BME280;74888;40.196;44.560;2023-12-20T05:22:29;88258.03;;;0.30;48.56
82953;BME280;74888;40.196;44.560;2023-12-20T05:24:55;88258.59;;;0.37;47.92
82953;BME280;74888;40.196;44.560;2023-12-20T05:27:21;88250.72;;;0.44;47.78
82953;BME280;74888;40.196;44.560;2023-12-20T05:29:48;88253.50;;;0.53;47.81
82953;BME280;74888;40.196;44.560;2023-12-20T05:32:14;88256.16;;;0.66;47.68
82953;BME280;74888;40.196;44.560;2023-12-20T05:34:42;88256.44;;;0.71;47.07
82953;BME280;74888;40.196;44.560;2023-12-20T05:37:08;88260.41;;;0.76;47.48
82953;BME280;74888;40.196;44.560;2023-12-20T05:39:34;88253.22;;;0.83;47.70
82953;BME280;74888;40.196;44.560;2023-12-20T05:42:00;88266.25;;;0.96;47.04
82953;BME280;74888;40.196;44.560;2023-12-20T05:44:25;88261.25;;;1.05;47.29
82953;BME280;74888;40.196;44.560;2023-12-20T05:46:53;88267.00;;;1.12;47.23
82953;BME280;74888;40.196;44.560;2023-12-20T05:49:18;88272.56;;;1.27;47.13
82953;BME280;74888;40.196;44.560;2023-12-20T05:51:45;88271.09;;;1.42;47.12
82953;BME280;74888;40.196;44.560;2023-12-20T05:54:12;88271.03;;;1.62;46.49
82953;BME280;74888;40.196;44.560;2023-12-20T05:56:37;88270.91;;;1.81;46.58
82953;BME280;74888;40.196;44.560;2023-12-20T05:59:03;88271.34;;;2.08;45.68
82953;BME280;74888;40.196;44.560;2023-12-20T06:01:28;88272.38;;;2.39;46.45
82953;BME280;74888;40.196;44.560;2023-12-20T06:03:54;88277.31;;;2.63;45.45
82953;BME280;74888;40.196;44.560;2023-12-20T06:06:20;88272.50;;;2.90;43.97
82953;BME280;74888;40.196;44.560;2023-12-20T06:08:47;88282.84;;;3.02;45.01
82953;BME280;74888;40.196;44.560;2023-12-20T06:11:13;88267.53;;;3.08;44.80
82953;BME280;74888;40.196;44.560;2023-12-20T06:13:39;88277.56;;;3.06;44.88
82953;BME280;74888;40.196;44.560;2023-12-20T06:16:07;88276.97;;;3.27;45.53
82953;BME280;74888;40.196;44.560;2023-12-20T06:18:33;88284.22;;;3.57;44.84
82953;BME280;74888;40.196;44.560;2023-12-20T06:20:58;88286.78;;;3.82;44.33
82953;BME280;74888;40.196;44.560;2023-12-20T06:23:32;88276.84;;;4.02;44.32
82953;BME280;74888;40.196;44.560;2023-12-20T06:25:58;88278.06;;;4.10;44.96
82953;BME280;74888;40.196;44.560;2023-12-20T06:28:23;88286.38;;;4.18;43.90
82953;BME280;74888;40.196;44.560;2023-12-20T06:30:49;88283.00;;;4.30;43.95
82953;BME280;74888;40.196;44.560;2023-12-20T06:33:15;88286.97;;;4.43;43.58
82953;BME280;74888;40.196;44.560;2023-12-20T06:35:42;88288.69;;;4.59;44.23
82953;BME280;74888;40.196;44.560;2023-12-20T06:38:09;88294.69;;;4.68;43.37
82953;BME280;74888;40.196;44.560;2023-12-20T06:40:35;88294.44;;;4.75;43.66
82953;BME280;74888;40.196;44.560;2023-12-20T06:43:00;88293.59;;;4.78;43.54
82953;BME280;74888;40.196;44.560;2023-12-20T06:45:26;88286.69;;;4.84;42.46
82953;BME280;74888;40.196;44.560;2023-12-20T06:47:54;88285.16;;;4.96;43.47
82953;BME280;74888;40.196;44.560;2023-12-20T06:50:20;88282.06;;;5.10;42.96
82953;BME280;74888;40.196;44.560;2023-12-20T06:52:46;88290.75;;;5.16;42.94
82953;BME280;74888;40.196;44.560;2023-12-20T06:55:13;88282.53;;;5.18;42.84
82953;BME280;74888;40.196;44.560;2023-12-20T06:57:40;88284.19;;;5.24;42.67
82953;BME280;74888;40.196;44.560;2023-12-20T07:00:11;88282.16;;;5.28;42.54
82953;BME280;74888;40.196;44.560;2023-12-20T07:02:37;88285.06;;;5.30;43.08
82953;BME280;74888;40.196;44.560;2023-12-20T07:05:04;88290.13;;;5.34;43.23
82953;BME280;74888;40.196;44.560;2023-12-20T07:07:32;88282.19;;;5.37;43.23
82953;BME280;74888;40.196;44.560;2023-12-20T07:09:58;88284.25;;;5.51;43.12
82953;BME280;74888;40.196;44.560;2023-12-20T07:12:23;88282.72;;;5.63;42.64
82953;BME280;74888;40.196;44.560;2023-12-20T07:14:49;88291.84;;;5.67;42.44
82953;BME280;74888;40.196;44.560;2023-12-20T07:17:14;88286.69;;;5.76;42.69
82953;BME280;74888;40.196;44.560;2023-12-20T07:19:42;88283.09;;;5.83;42.34
82953;BME280;74888;40.196;44.560;2023-12-20T07:22:09;88276.59;;;5.87;42.30
82953;BME280;74888;40.196;44.560;2023-12-20T07:24:35;88277.91;;;5.92;42.16
82953;BME280;74888;40.196;44.560;2023-12-20T07:27:01;88281.53;;;5.94;42.88
82953;BME280;74888;40.196;44.560;2023-12-20T07:29:27;88283.56;;;5.99;42.59
82953;BME280;74888;40.196;44.560;2023-12-20T07:31:53;88275.75;;;5.99;41.98
82953;BME280;74888;40.196;44.560;2023-12-20T07:34:22;88281.53;;;6.03;42.50
82953;BME280;74888;40.196;44.560;2023-12-20T07:36:47;88268.97;;;6.11;42.39
82953;BME280;74888;40.196;44.560;2023-12-20T07:39:14;88272.44;;;6.17;41.82
82953;BME280;74888;40.196;44.560;2023-12-20T07:41:40;88274.06;;;6.23;41.98
82953;BME280;74888;40.196;44.560;2023-12-20T07:44:06;88263.75;;;6.29;41.23
82953;BME280;74888;40.196;44.560;2023-12-20T07:46:33;88255.50;;;6.12;41.54
82953;BME280;74888;40.196;44.560;2023-12-20T07:48:59;88250.88;;;6.16;42.09
82953;BME280;74888;40.196;44.560;2023-12-20T07:51:27;88249.13;;;6.22;41.36
82953;BME280;74888;40.196;44.560;2023-12-20T07:53:52;88250.44;;;6.36;42.33
82953;BME280;74888;40.196;44.560;2023-12-20T07:56:19;88246.69;;;6.46;42.28
82953;BME280;74888;40.196;44.560;2023-12-20T07:58:45;88245.66;;;6.53;41.52
82953;BME280;74888;40.196;44.560;2023-12-20T08:01:11;88243.94;;;6.59;41.38
82953;BME280;74888;40.196;44.560;2023-12-20T08:03:39;88240.00;;;6.63;41.06
82953;BME280;74888;40.196;44.560;2023-12-20T08:06:05;88236.09;;;6.68;41.34
82953;BME280;74888;40.196;44.560;2023-12-20T08:08:32;88232.44;;;6.74;41.24
82953;BME280;74888;40.196;44.560;2023-12-20T08:10:57;88235.19;;;6.80;41.82
82953;BME280;74888;40.196;44.560;2023-12-20T08:13:26;88237.38;;;6.81;40.88
82953;BME280;74888;40.196;44.560;2023-12-20T08:15:52;88228.50;;;6.88;40.75
82953;BME280;74888;40.196;44.560;2023-12-20T08:18:18;88221.00;;;6.81;41.40
82953;BME280;74888;40.196;44.560;2023-12-20T08:20:44;88216.09;;;6.74;40.94
82953;BME280;74888;40.196;44.560;2023-12-20T08:23:10;88210.72;;;6.68;40.76
82953;BME280;74888;40.196;44.560;2023-12-20T08:25:35;88203.19;;;6.79;41.43
82953;BME280;74888;40.196;44.560;2023-12-20T08:28:02;88210.84;;;6.92;41.01
82953;BME280;74888;40.196;44.560;2023-12-20T08:30:31;88208.34;;;6.97;40.26
82953;BME280;74888;40.196;44.560;2023-12-20T08:33:01;88202.84;;;7.04;41.21
82953;BME280;74888;40.196;44.560;2023-12-20T08:35:28;88206.00;;;7.08;41.18
82953;BME280;74888;40.196;44.560;2023-12-20T08:37:54;88201.94;;;7.07;40.28
82953;BME280;74888;40.196;44.560;2023-12-20T08:40:21;88193.53;;;7.03;41.56
82953;BME280;74888;40.196;44.560;2023-12-20T08:42:47;88189.50;;;7.02;41.38
82953;BME280;74888;40.196;44.560;2023-12-20T08:45:14;88195.69;;;7.14;40.99
82953;BME280;74888;40.196;44.560;2023-12-20T08:47:40;88181.44;;;7.24;40.72
82953;BME280;74888;40.196;44.560;2023-12-20T08:50:07;88180.00;;;7.23;40.52
82953;BME280;74888;40.196;44.560;2023-12-20T08:52:33;88178.69;;;7.18;40.55
82953;BME280;74888;40.196;44.560;2023-12-20T08:54:59;88178.25;;;7.20;40.68
82953;BME280;74888;40.196;44.560;2023-12-20T08:57:27;88176.38;;;7.20;40.61
82953;BME280;74888;40.196;44.560;2023-12-20T08:59:54;88169.16;;;7.15;40.66
82953;BME280;74888;40.196;44.560;2023-12-20T09:02:21;88174.06;;;7.13;41.14
82953;BME280;74888;40.196;44.560;2023-12-20T09:04:49;88167.13;;;7.10;40.98
82953;BME280;74888;40.196;44.560;2023-12-20T09:07:28;88164.38;;;7.14;40.25
82953;BME280;74888;40.196;44.560;2023-12-20T09:09:56;88168.16;;;7.13;40.82
82953;BME280;74888;40.196;44.560;2023-12-20T09:12:22;88163.63;;;7.13;41.08
82953;BME280;74888;40.196;44.560;2023-12-20T09:14:48;88165.34;;;7.16;40.63
82953;BME280;74888;40.196;44.560;2023-12-20T09:17:18;88156.22;;;7.21;41.06
82953;BME280;74888;40.196;44.560;2023-12-20T09:19:44;88156.75;;;7.34;40.96
82953;BME280;74888;40.196;44.560;2023-12-20T09:22:12;88153.53;;;7.39;40.60
82953;BME280;74888;40.196;44.560;2023-12-20T09:24:38;88150.63;;;7.37;40.37
82953;BME280;74888;40.196;44.560;2023-12-20T09:27:05;88140.03;;;7.40;41.64
82953;BME280;74888;40.196;44.560;2023-12-20T09:29:31;88142.47;;;7.44;40.42
82953;BME280;74888;40.196;44.560;2023-12-20T09:31:56;88144.47;;;7.49;40.94
82953;BME280;74888;40.196;44.560;2023-12-20T09:34:23;88140.09;;;7.55;40.59
82953;BME280;74888;40.196;44.560;2023-12-20T09:36:49;88135.59;;;7.56;40.67
82953;BME280;74888;40.196;44.560;2023-12-20T09:39:16;88139.22;;;7.58;40.53
82953;BME280;74888;40.196;44.560;2023-12-20T09:41:59;88131.69;;;7.51;40.93
82953;BME280;74888;40.196;44.560;2023-12-20T09:44:26;88132.97;;;7.56;40.44
82953;BME280;74888;40.196;44.560;2023-12-20T09:46:53;88127.88;;;7.61;40.79
82953;BME280;74888;40.196;44.560;2023-12-20T09:49:20;88126.97;;;7.64;40.56
82953;BME280;74888;40.196;44.560;2023-12-20T09:51:48;88124.44;;;7.55;41.17
82953;BME280;74888;40.196;44.560;2023-12-20T09:54:17;88121.63;;;7.59;40.57
82953;BME280;74888;40.196;44.560;2023-12-20T09:56:43;88118.19;;;7.76;40.38
82953;BME280;74888;40.196;44.560;2023-12-20T09:59:08;88117.56;;;7.81;40.81
82953;BME280;74888;40.196;44.560;2023-12-20T10:01:35;88115.06;;;7.87;40.55
82953;BME280;74888;40.196;44.560;2023-12-20T10:04:05;88114.81;;;7.99;40.40
82953;BME280;74888;40.196;44.560;2023-12-20T10:06:40;88111.38;;;7.93;40.47
82953;BME280;74888;40.196;44.560;2023-12-20T10:09:06;88109.13;;;8.01;40.82
82953;BME280;74888;40.196;44.560;2023-12-20T10:11:31;88111.50;;;8.13;39.99
82953;BME280;74888;40.196;44.560;2023-12-20T10:14:01;88103.19;;;8.24;40.38
82953;BME280;74888;40.196;44.560;2023-12-20T10:16:28;88103.63;;;8.37;40.16
82953;BME280;74888;40.196;44.560;2023-12-20T10:18:54;88097.31;;;8.43;40.12
82953;BME280;74888;40.196;44.560;2023-12-20T10:21:20;88093.09;;;8.46;39.80
82953;BME280;74888;40.196;44.560;2023-12-20T10:23:47;88096.53;;;8.37;39.68
82953;BME280;74888;40.196;44.560;2023-12-20T10:26:26;88096.34;;;8.41;39.15
82953;BME280;74888;40.196;44.560;2023-12-20T10:28:54;88091.13;;;8.41;39.91
82953;BME280;74888;40.196;44.560;2023-12-20T10:31:46;88084.53;;;8.31;40.24
82953;BME280;74888;40.196;44.560;2023-12-20T10:34:12;88085.06;;;8.35;40.35
82953;BME280;74888;40.196;44.560;2023-12-20T10:36:37;88086.13;;;8.43;40.06
82953;BME280;74888;40.196;44.560;2023-12-20T10:39:06;88079.09;;;8.49;39.31
82953;BME280;74888;40.196;44.560;2023-12-20T10:41:33;88076.84;;;8.27;39.56
82953;BME280;74888;40.196;44.560;2023-12-20T10:44:04;88078.72;;;8.41;40.40
82953;BME280;74888;40.196;44.560;2023-12-20T10:46:34;88083.63;;;8.48;39.57
82953;BME280;74888;40.196;44.560;2023-12-20T10:49:02;88073.69;;;8.52;39.32
82953;BME280;74888;40.196;44.560;2023-12-20T10:51:28;88081.88;;;8.60;38.82
82953;BME280;74888;40.196;44.560;2023-12-20T10:53:57;88081.19;;;8.59;39.02
82953;BME280;74888;40.196;44.560;2023-12-20T10:56:23;88067.00;;;8.66;39.27
82953;BME280;74888;40.196;44.560;2023-12-20T10:58:51;88072.94;;;8.81;38.52
82953;BME280;74888;40.196;44.560;2023-12-20T11:01:19;88068.50;;;9.02;38.99
82953;BME280;74888;40.196;44.560;2023-12-20T11:03:51;88070.13;;;8.99;37.95
82953;BME280;74888;40.196;44.560;2023-12-20T11:06:40;88069.56;;;8.95;36.93
82953;BME280;74888;40.196;44.560;2023-12-20T11:09:25;88072.31;;;8.71;38.48
82953;BME280;74888;40.196;44.560;2023-12-20T11:12:15;88076.94;;;8.47;38.74
82953;BME280;74888;40.196;44.560;2023-12-20T11:14:54;88072.88;;;8.46;39.08
82953;BME280;74888;40.196;44.560;2023-12-20T11:17:27;88073.97;;;8.54;38.92
82953;BME280;74888;40.196;44.560;2023-12-20T11:22:27;88078.28;;;8.43;38.94
82953;BME280;74888;40.196;44.560;2023-12-20T11:25:06;88080.81;;;8.52;39.34
82953;BME280;74888;40.196;44.560;2023-12-20T11:27:42;88077.41;;;8.46;38.55
82953;BME280;74888;40.196;44.560;2023-12-20T11:30:14;88081.06;;;8.39;38.78
82953;BME280;74888;40.196;44.560;2023-12-20T11:32:40;88081.91;;;8.45;39.13
82953;BME280;74888;40.196;44.560;2023-12-20T11:37:37;88083.44;;;9.16;38.20
82953;BME280;74888;40.196;44.560;2023-12-20T11:40:05;88072.03;;;9.19;37.50
82953;BME280;74888;40.196;44.560;2023-12-20T11:42:39;88076.84;;;9.20;37.64
82953;BME280;74888;40.196;44.560;2023-12-20T11:45:08;88082.16;;;9.26;38.00
82953;BME280;74888;40.196;44.560;2023-12-20T11:47:34;88075.19;;;9.23;38.14
82953;BME280;74888;40.196;44.560;2023-12-20T11:50:01;88074.78;;;9.10;37.83
82953;BME280;74888;40.196;44.560;2023-12-20T11:52:29;88079.22;;;9.04;38.08
82953;BME280;74888;40.196;44.560;2023-12-20T11:54:57;88082.09;;;9.06;38.49
82953;BME280;74888;40.196;44.560;2023-12-20T11:57:23;88084.00;;;9.05;38.20
82953;BME280;74888;40.196;44.560;2023-12-20T11:59:49;88078.44;;;8.98;38.49
82953;BME280;74888;40.196;44.560;2023-12-20T12:02:15;88082.06;;;8.86;38.14
82953;BME280;74888;40.196;44.560;2023-12-20T12:04:41;88076.47;;;8.78;38.43
82953;BME280;74888;40.196;44.560;2023-12-20T12:07:07;88077.31;;;8.69;39.30
82953;BME280;74888;40.196;44.560;2023-12-20T12:09:34;88073.25;;;8.54;38.57
82953;BME280;74888;40.196;44.560;2023-12-20T12:12:00;88075.59;;;8.52;38.77
82953;BME280;74888;40.196;44.560;2023-12-20T12:14:27;88075.31;;;8.50;39.39
82953;BME280;74888;40.196;44.560;2023-12-20T12:16:53;88080.63;;;8.55;39.43
82953;BME280;74888;40.196;44.560;2023-12-20T12:19:23;88071.59;;;8.56;39.21
82953;BME280;74888;40.196;44.560;2023-12-20T12:21:50;88064.31;;;8.60;39.30
82953;BME280;74888;40.196;44.560;2023-12-20T12:24:20;88065.94;;;8.43;39.39
82953;BME280;74888;40.196;44.560;2023-12-20T12:26:51;88072.63;;;8.44;39.56
82953;BME280;74888;40.196;44.560;2023-12-20T12:29:17;88072.41;;;8.48;39.39
82953;BME280;74888;40.196;44.560;2023-12-20T12:31:45;88070.53;;;8.48;39.62
82953;BME280;74888;40.196;44.560;2023-12-20T12:34:10;88064.31;;;8.46;39.11
82953;BME280;74888;40.196;44.560;2023-12-20T12:36:36;88072.50;;;8.53;39.33
82953;BME280;74888;40.196;44.560;2023-12-20T12:39:02;88067.56;;;8.55;39.22
82953;BME280;74888;40.196;44.560;2023-12-20T12:41:30;88063.75;;;8.56;38.67
82953;BME280;74888;40.196;44.560;2023-12-20T12:43:56;88065.66;;;8.56;38.90
82953;BME280;74888;40.196;44.560;2023-12-20T12:46:22;88068.75;;;8.54;38.94
82953;BME280;74888;40.196;44.560;2023-12-20T12:48:48;88062.22;;;8.50;38.70
82953;BME280;74888;40.196;44.560;2023-12-20T12:51:17;88052.69;;;8.47;39.25
82953;BME280;74888;40.196;44.560;2023-12-20T12:53:43;88063.31;;;8.43;38.97
82953;BME280;74888;40.196;44.560;2023-12-20T12:56:10;88063.94;;;8.38;39.21
82953;BME280;74888;40.196;44.560;2023-12-20T12:58:38;88057.09;;;8.26;39.81
82953;BME280;74888;40.196;44.560;2023-12-20T13:01:04;88057.00;;;8.21;39.78
82953;BME280;74888;40.196;44.560;2023-12-20T13:03:30;88053.09;;;8.16;38.81